Time;durP1;ratioP1;P1;durP2;ratioP2;P2;SDS_P1;SDS_P2;PMS_P1;PMS_P2;Temp;Humidity;BMP_temperature;BMP_pressure;BME280_temperature;BME280_humidity;BME280_pressure;Samples;Min_cycle;Max_cycle;Signal;HPM_P1;HPM_P2
2022/09/08 00:00:38;;;;;;;10.70;5.80;;;;;;;15.98;100.00;101216.91;5071879;28;20468;-53
2022/09/08 00:03:09;;;;;;;9.97;6.67;;;;;;;15.95;100.00;101220.03;5071832;28;20426;-54
2022/09/08 00:05:43;;;;;;;7.73;6.00;;;;;;;15.93;100.00;101219.44;5071817;28;20491;-54
2022/09/08 00:08:11;;;;;;;8.50;5.90;;;;;;;15.88;100.00;101211.22;5071725;28;20854;-53
2022/09/08 00:10:39;;;;;;;11.30;6.47;;;;;;;15.88;100.00;101207.69;5061218;28;20474;-55
2022/09/08 00:13:07;;;;;;;11.50;7.07;;;;;;;15.86;100.00;101197.13;5051629;28;20492;-55
2022/09/08 00:15:37;;;;;;;8.87;6.90;;;;;;;15.89;100.00;101198.56;5051846;28;20439;-53
2022/09/08 00:18:05;;;;;;;7.60;5.87;;;;;;;15.88;100.00;101199.63;5051899;28;20859;-55
2022/09/08 00:20:33;;;;;;;7.43;5.30;;;;;;;15.87;100.00;101196.09;5060228;28;20532;-52
2022/09/08 00:23:02;;;;;;;6.63;6.00;;;;;;;15.87;100.00;101192.59;5071542;28;20426;-50
2022/09/08 00:25:30;;;;;;;5.93;5.53;;;;;;;15.87;100.00;101193.41;5071732;28;20430;-47
2022/09/08 00:27:58;;;;;;;6.37;5.73;;;;;;;15.85;100.00;101192.81;5071565;28;20454;-54
2022/09/08 00:30:25;;;;;;;6.20;5.40;;;;;;;15.84;100.00;101188.47;5062842;28;20938;-54
2022/09/08 00:32:53;;;;;;;7.10;5.50;;;;;;;15.81;100.00;101182.72;5051287;28;20439;-54
2022/09/08 00:35:21;;;;;;;9.63;5.53;;;;;;;15.78;100.00;101181.28;5051403;28;20439;-55
2022/09/08 00:37:52;;;;;;;6.00;5.40;;;;;;;15.75;100.00;101168.28;5051617;28;20843;-55
2022/09/08 00:40:23;;;;;;;11.03;6.07;;;;;;;15.73;100.00;101181.13;5058245;28;20553;-54
2022/09/08 00:42:59;;;;;;;10.97;6.20;;;;;;;15.71;100.00;101182.41;5071363;28;20422;-54
2022/09/08 00:45:28;;;;;;;6.30;5.70;;;;;;;15.66;100.00;101184.91;5071467;28;20433;-52
2022/09/08 00:47:59;;;;;;;7.37;6.00;;;;;;;15.61;100.00;101182.88;5071527;28;20456;-53
2022/09/08 00:50:28;;;;;;;7.00;6.33;;;;;;;15.59;100.00;101190.31;5062616;28;20501;-55
2022/09/08 00:53:00;;;;;;;8.30;5.90;;;;;;;15.59;100.00;101190.31;5051162;28;20427;-55
2022/09/08 00:55:30;;;;;;;10.83;5.70;;;;;;;15.59;100.00;101193.00;5051116;28;20851;-53
2022/09/08 00:57:58;;;;;;;7.87;5.83;;;;;;;15.58;100.00;101188.69;5051365;28;20439;-51
2022/09/08 01:00:26;;;;;;;7.67;6.10;;;;;;;15.57;100.00;101180.84;5058782;28;20975;-52
2022/09/08 01:02:53;;;;;;;7.93;5.60;;;;;;;15.58;100.00;101188.69;5071221;28;20479;-54
2022/09/08 01:05:24;;;;;;;7.17;6.43;;;;;;;15.56;100.00;101184.59;5071539;28;20491;-54
2022/09/08 01:14:05;;;;;;;6.10;5.67;;;;;;;15.54;100.00;101170.53;5009003;28;20487;-53
2022/09/08 01:16:40;;;;;;;6.73;5.03;;;;;;;15.53;100.00;101175.06;5041414;28;20481;-54
2022/09/08 01:19:13;;;;;;;9.73;4.97;;;;;;;15.54;100.00;101174.03;5051218;28;20520;-52
2022/09/08 01:21:53;;;;;;;6.17;5.60;;;;;;;15.53;100.00;101167.00;5069172;28;20470;-54
2022/09/08 01:24:46;;;;;;;5.93;5.43;;;;;;;15.52;100.00;101176.13;5071034;28;20476;-55
2022/09/08 01:27:21;;;;;;;6.20;5.60;;;;;;;15.52;100.00;101175.31;5069110;28;20434;-51
2022/09/08 01:29:51;;;;;;;6.83;5.57;;;;;;;15.52;100.00;101173.44;5067652;28;20454;-46
2022/09/08 01:32:20;;;;;;;5.50;5.00;;;;;;;15.52;100.00;101165.38;5050565;28;20892;-50
2022/09/08 01:34:48;;;;;;;8.00;6.07;;;;;;;15.52;100.00;101164.53;5051033;28;20907;-55
2022/09/08 01:37:15;;;;;;;5.73;5.20;;;;;;;15.52;100.00;101162.69;5050897;28;21010;-54
2022/09/08 01:39:43;;;;;;;9.53;6.33;;;;;;;15.48;100.00;101162.28;5052546;28;20991;-52
2022/09/08 01:42:10;;;;;;;16.23;5.63;;;;;;;15.46;100.00;101153.59;5074201;28;20967;-54
2022/09/08 01:44:39;;;;;;;7.53;6.77;;;;;;;15.47;100.00;101149.09;5074673;28;20426;-54
2022/09/08 01:47:07;;;;;;;5.93;5.40;;;;;;;15.44;100.00;101144.13;5074616;28;20563;-53
2022/09/08 01:49:34;;;;;;;7.10;5.53;;;;;;;15.43;100.00;101143.28;5072896;28;20434;-53
2022/09/08 01:52:02;;;;;;;6.50;5.33;;;;;;;15.40;100.00;101135.66;5054167;28;20477;-54
2022/09/08 01:54:30;;;;;;;7.80;5.50;;;;;;;15.44;100.00;101141.44;5054023;28;20431;-53
2022/09/08 01:56:57;;;;;;;14.50;5.63;;;;;;;15.42;100.00;101143.50;5054472;28;20510;-54
2022/09/08 01:59:25;;;;;;;6.77;5.73;;;;;;;15.39;100.00;101141.25;5054276;28;20859;-52
2022/09/08 02:01:54;;;;;;;9.13;5.20;;;;;;;15.39;100.00;101135.88;5053865;28;21042;-52
2022/09/08 02:04:21;;;;;;;7.30;5.90;;;;;;;15.38;100.00;101140.41;5053911;28;20435;-50
2022/09/08 02:06:49;;;;;;;5.33;4.83;;;;;;;15.37;100.00;101133.41;5053953;28;20497;-49
2022/09/08 02:09:17;;;;;;;13.83;5.50;;;;;;;15.34;100.00;101139.22;5053978;28;20427;-54
2022/09/08 02:11:48;;;;;;;6.23;4.73;;;;;;;15.31;100.00;101126.22;5053350;28;21001;-50
2022/09/08 02:14:15;;;;;;;6.87;6.27;;;;;;;15.28;100.00;101125.84;5053891;28;20485;-53
2022/09/08 02:16:43;;;;;;;7.83;5.30;;;;;;;15.24;100.00;101136.19;5053976;28;20461;-47
2022/09/08 02:19:12;;;;;;;6.90;6.07;;;;;;;15.25;100.00;101128.94;5053837;28;20851;-48
2022/09/08 02:21:40;;;;;;;6.03;5.53;;;;;;;15.22;100.00;101132.91;5053221;28;20523;-53
2022/09/08 02:24:08;;;;;;;7.50;5.77;;;;;;;15.21;100.00;101116.97;5053580;28;20504;-49
2022/09/08 02:26:37;;;;;;;9.40;6.13;;;;;;;15.20;100.00;101120.72;5053644;28;20462;-50
2022/09/08 02:29:08;;;;;;;8.30;4.90;;;;;;;15.17;100.00;101121.97;5053643;28;20509;-51
2022/09/08 02:31:36;;;;;;;6.07;5.47;;;;;;;15.19;100.00;101130.66;5071087;28;20489;-48
2022/09/08 02:34:04;;;;;;;7.73;5.03;;;;;;;15.19;100.00;101122.59;5073070;28;20499;-48
2022/09/08 02:36:33;;;;;;;6.83;6.10;;;;;;;15.21;100.00;101125.03;5073730;28;20438;-48
2022/09/08 02:39:01;;;;;;;7.03;5.50;;;;;;;15.25;100.00;101115.53;5073586;28;20430;-52
2022/09/08 02:41:29;;;;;;;7.63;5.70;;;;;;;15.29;100.00;101114.06;5056002;28;20467;-55
2022/09/08 02:43:56;;;;;;;6.73;5.40;;;;;;;15.31;100.00;101112.78;5053190;28;20434;-53
2022/09/08 02:46:24;;;;;;;7.97;4.83;;;;;;;15.33;100.00;101118.75;5053247;28;20435;-49
2022/09/08 02:48:52;;;;;;;5.53;5.10;;;;;;;15.38;100.00;101102.78;5053307;28;20508;-55
2022/09/08 02:51:20;;;;;;;12.40;5.73;;;;;;;15.39;100.00;101093.69;5068120;28;20879;-51
2022/09/08 02:53:49;;;;;;;5.73;4.73;;;;;;;15.41;100.00;101091.59;5061348;28;20473;-55
2022/09/08 02:56:16;;;;;;;5.90;5.00;;;;;;;15.46;100.00;101104.41;5069462;28;20434;-53
2022/09/08 02:58:44;;;;;;;9.63;5.37;;;;;;;15.46;100.00;101105.22;5073193;28;20851;-55
2022/09/08 03:01:11;;;;;;;4.80;4.60;;;;;;;15.49;100.00;101099.44;5057798;28;20475;-55
2022/09/08 03:03:39;;;;;;;5.50;4.90;;;;;;;15.50;100.00;101106.44;5052777;28;20911;-54
2022/09/08 03:06:07;;;;;;;8.00;4.60;;;;;;;15.50;100.00;101111.03;5053194;28;20885;-54
2022/09/08 03:08:35;;;;;;;6.20;5.00;;;;;;;15.49;100.00;101109.38;5053010;28;20488;-53
2022/09/08 03:11:04;;;;;;;6.70;5.40;;;;;;;15.51;100.00;101101.91;5065785;28;20884;-53
2022/09/08 03:13:32;;;;;;;15.23;5.70;;;;;;;15.50;100.00;101100.28;5072461;28;20952;-49
2022/09/08 03:16:00;;;;;;;9.00;5.47;;;;;;;15.52;100.00;101100.88;5072965;28;20427;-51
2022/09/08 03:18:27;;;;;;;4.70;4.37;;;;;;;15.50;100.00;101094.91;5072855;28;20422;-52
2022/09/08 03:21:03;;;;;;;5.80;5.20;;;;;;;15.49;100.00;101094.06;5059839;28;20556;-49
2022/09/08 03:23:31;;;;;;;11.87;5.40;;;;;;;15.49;100.00;101095.94;5052403;28;20449;-48
2022/09/08 03:26:04;;;;;;;5.70;5.30;;;;;;;15.49;100.00;101087.88;5052453;28;20500;-48
2022/09/08 03:28:32;;;;;;;8.43;5.20;;;;;;;15.43;100.00;101083.34;5052514;28;20419;-50
2022/09/08 03:31:00;;;;;;;11.03;5.23;;;;;;;15.45;100.00;101075.88;5064965;28;20512;-50
2022/09/08 03:33:28;;;;;;;8.17;5.00;;;;;;;15.44;100.00;101075.03;5072061;28;20492;-48
2022/09/08 03:36:00;;;;;;;10.07;6.30;;;;;;;15.43;100.00;101068.03;5072308;28;20541;-49
2022/09/08 03:38:27;;;;;;;6.13;5.43;;;;;;;15.43;100.00;101059.97;5072280;28;20434;-48
2022/09/08 03:40:55;;;;;;;6.70;5.70;;;;;;;15.43;100.00;101065.34;5059619;28;20572;-49
2022/09/08 03:43:24;;;;;;;7.37;5.07;;;;;;;15.45;100.00;101070.50;5051953;28;20431;-50
2022/09/08 03:45:52;;;;;;;7.23;5.47;;;;;;;15.44;100.00;101069.66;5053631;28;20496;-54
2022/09/08 03:48:19;;;;;;;9.17;5.90;;;;;;;15.44;100.00;101076.94;5049391;28;20446;-56
2022/09/08 03:50:47;;;;;;;9.20;5.53;;;;;;;15.44;100.00;101072.34;5060733;28;20458;-51
2022/09/08 03:53:14;;;;;;;8.83;6.27;;;;;;;15.44;100.00;101071.56;5070385;28;20480;-54
2022/09/08 03:55:43;;;;;;;6.43;5.50;;;;;;;15.43;100.00;101075.28;5070975;28;20499;-54
2022/09/08 03:58:11;;;;;;;7.07;5.83;;;;;;;15.41;100.00;101070.09;5072133;28;20434;-55
2022/09/08 04:00:43;;;;;;;6.27;5.70;;;;;;;15.40;100.00;101073.84;5071463;28;20475;-55
2022/09/08 04:03:10;;;;;;;5.97;5.43;;;;;;;15.41;100.00;101066.63;5071133;28;20426;-56
2022/09/08 04:05:38;;;;;;;6.17;5.57;;;;;;;15.41;100.00;101072.00;5071645;28;20442;-56
2022/09/08 04:08:06;;;;;;;9.03;6.50;;;;;;;15.41;100.00;101074.69;5072008;28;20441;-54
2022/09/08 04:10:33;;;;;;;7.27;5.43;;;;;;;15.42;100.00;101079.81;5062020;28;20517;-53
2022/09/08 04:13:01;;;;;;;7.40;5.60;;;;;;;15.43;100.00;101076.09;5051703;28;20435;-52
2022/09/08 04:15:28;;;;;;;6.17;5.57;;;;;;;15.44;100.00;101082.31;5051849;28;20436;-53
2022/09/08 04:17:57;;;;;;;6.30;5.70;;;;;;;15.44;100.00;101085.00;5051743;28;20534;-55
2022/09/08 04:20:25;;;;;;;6.30;5.80;;;;;;;15.45;100.00;101075.88;5051140;28;20467;-54
2022/09/08 04:22:52;;;;;;;6.03;5.30;;;;;;;15.44;100.00;101060.81;5051463;28;20431;-51
2022/09/08 04:25:22;;;;;;;7.93;5.10;;;;;;;15.45;100.00;101057.06;5051677;28;20443;-56
2022/09/08 04:27:50;;;;;;;6.40;5.80;;;;;;;15.46;100.00;101069.47;5051888;28;20427;-55
2022/09/08 04:30:18;;;;;;;6.70;6.10;;;;;;;15.45;100.00;101062.44;5050987;28;20521;-55
2022/09/08 04:32:46;;;;;;;9.80;6.13;;;;;;;15.46;100.00;101066.78;5051076;28;20439;-52
2022/09/08 04:35:15;;;;;;;7.60;5.40;;;;;;;15.42;100.00;101068.25;5051405;28;21013;-55
2022/09/08 04:37:42;;;;;;;9.27;6.43;;;;;;;15.43;100.00;101067.22;5051824;28;20431;-55
2022/09/08 04:40:10;;;;;;;9.83;5.63;;;;;;;15.41;100.00;101063.94;5051528;28;20512;-55
2022/09/08 04:42:38;;;;;;;8.60;5.80;;;;;;;15.39;100.00;101060.63;5051124;28;20533;-55
2022/09/08 04:45:06;;;;;;;7.50;5.47;;;;;;;15.39;100.00;101058.75;5051312;28;20439;-55
2022/09/08 04:47:34;;;;;;;11.17;6.30;;;;;;;15.41;100.00;101045.13;5051355;28;20432;-56
2022/09/08 04:50:02;;;;;;;11.37;6.43;;;;;;;15.38;100.00;101049.03;5050899;28;20455;-55
2022/09/08 04:52:31;;;;;;;8.77;5.77;;;;;;;15.40;100.00;101062.28;5050994;28;20451;-55
2022/09/08 04:54:59;;;;;;;5.50;4.90;;;;;;;15.39;100.00;101064.13;5051355;28;20431;-55
2022/09/08 04:57:27;;;;;;;5.30;4.80;;;;;;;15.45;100.00;101060.56;5051282;28;20796;-55
2022/09/08 04:59:55;;;;;;;8.20;5.13;;;;;;;15.47;100.00;101058.50;5054572;28;20512;-55
2022/09/08 05:02:23;;;;;;;6.47;5.90;;;;;;;15.54;100.00;101057.63;5071169;28;20886;-55
2022/09/08 05:04:50;;;;;;;6.07;5.57;;;;;;;15.58;100.00;101054.28;5071305;28;20438;-50
2022/09/08 05:07:22;;;;;;;5.57;5.07;;;;;;;15.61;100.00;101063.78;5071382;28;20436;-47
2022/09/08 05:09:51;;;;;;;7.73;4.90;;;;;;;15.66;100.00;101054.00;5067600;28;20867;-48
2022/09/08 05:12:19;;;;;;;8.70;6.70;;;;;;;15.70;100.00;101052.50;5050787;28;20505;-47
2022/09/08 05:14:47;;;;;;;7.70;5.67;;;;;;;15.74;100.00;101042.94;5051470;28;20431;-55
2022/09/08 05:17:14;;;;;;;6.23;5.17;;;;;;;15.77;100.00;101055.94;5055049;28;20430;-54
2022/09/08 05:19:49;;;;;;;6.60;5.17;;;;;;;15.85;100.00;101038.69;5057676;28;20488;-55
2022/09/08 05:22:17;;;;;;;9.70;5.80;;;;;;;15.89;100.00;101035.31;5074673;28;20519;-53
2022/09/08 05:24:44;;;;;;;6.03;5.53;;;;;;;15.96;100.00;101036.09;5074848;28;20475;-55
2022/09/08 05:27:13;;;;;;;6.43;5.67;;;;;;;16.00;100.00;101037.28;5074773;28;20434;-53
2022/09/08 05:29:41;;;;;;;7.30;5.57;;;;;;;16.06;100.00;101035.56;5072584;28;20495;-55
2022/09/08 05:32:08;;;;;;;6.73;4.90;;;;;;;16.06;100.00;101027.50;5054460;28;20585;-54
2022/09/08 05:34:36;;;;;;;5.37;4.97;;;;;;;16.18;100.00;101025.69;5054738;28;20427;-55
2022/09/08 05:37:03;;;;;;;5.13;4.37;;;;;;;16.31;100.00;101028.19;5054714;28;20431;-55
2022/09/08 05:39:31;;;;;;;5.87;5.33;;;;;;;16.45;100.00;101029.69;5054815;28;20427;-50
2022/09/08 05:41:59;;;;;;;7.03;5.00;;;;;;;16.62;100.00;101035.25;5074617;28;20520;-54
2022/09/08 05:44:28;;;;;;;7.30;5.13;;;;;;;16.79;100.00;101020.09;5074562;28;20938;-55
2022/09/08 05:46:55;;;;;;;5.13;4.63;;;;;;;16.94;100.00;101016.94;5074687;28;20430;-50
2022/09/08 05:49:23;;;;;;;6.40;5.67;;;;;;;17.02;100.00;101017.44;5074493;28;20434;-53
2022/09/08 05:51:52;;;;;;;12.37;4.80;;;;;;;17.15;100.00;101008.31;5053811;28;20459;-50
2022/09/08 05:54:20;;;;;;;4.97;4.53;;;;;;;17.34;100.00;101015.25;5054277;28;20489;-49
2022/09/08 05:56:47;;;;;;;5.93;4.73;;;;;;;17.55;100.00;101009.31;5054477;28;20435;-51
2022/09/08 05:59:15;;;;;;;8.13;5.67;;;;;;;17.75;99.33;101010.78;5054426;28;20485;-52
2022/09/08 06:01:44;;;;;;;4.97;4.67;;;;;;;17.88;97.98;100997.88;5052007;22;20793;-41
2022/09/08 06:04:14;;;;;;;6.07;5.57;;;;;;;17.94;95.50;101002.31;4994543;28;20430;-40
2022/09/08 06:06:42;;;;;;;11.23;5.50;;;;;;;18.19;94.04;100999.28;4994865;28;20426;-40
2022/09/08 06:09:12;;;;;;;6.90;5.27;;;;;;;18.30;91.02;100994.94;4995070;28;20511;-43
2022/09/08 06:11:40;;;;;;;14.70;5.43;;;;;;;18.52;92.21;101001.31;4994192;28;20458;-40
2022/09/08 06:14:10;;;;;;;7.10;5.43;;;;;;;18.57;87.55;101004.13;4994590;28;20490;-42
2022/09/08 06:16:37;;;;;;;22.80;6.63;;;;;;;18.83;87.62;100994.56;4994567;28;20476;-40
2022/09/08 06:19:06;;;;;;;5.67;5.07;;;;;;;19.16;87.25;100987.28;4994420;28;20434;-40
2022/09/08 06:21:34;;;;;;;5.87;5.00;;;;;;;19.42;83.91;100993.09;4993919;28;20473;-40
2022/09/08 06:24:04;;;;;;;9.43;5.60;;;;;;;19.97;80.58;100985.72;4994538;28;20800;-40
2022/09/08 06:26:57;;;;;;;7.50;4.80;;;;;;;20.74;78.42;100993.63;4994198;28;20488;-40
2022/09/08 06:29:39;;;;;;;6.00;5.13;;;;;;;21.28;75.37;100988.91;4994579;28;20438;-42
2022/09/08 06:32:19;;;;;;;5.67;5.10;;;;;;;21.04;72.37;100991.16;4994066;28;20846;-41
2022/09/08 06:34:53;;;;;;;6.93;4.83;;;;;;;20.97;68.28;100987.84;4994467;28;20472;-40
2022/09/08 06:37:30;;;;;;;6.63;5.00;;;;;;;20.93;70.25;101000.28;4994339;28;20896;-41
2022/09/08 06:40:05;;;;;;;7.83;5.63;;;;;;;21.20;71.11;100989.41;4993700;28;20461;-41
2022/09/08 06:42:43;;;;;;;6.50;5.30;;;;;;;21.68;70.18;100980.22;4994019;28;20476;-41
2022/09/08 06:45:19;;;;;;;5.10;4.70;;;;;;;21.72;66.20;100987.56;4994237;28;20492;-41
2022/09/08 06:47:53;;;;;;;5.20;4.73;;;;;;;21.85;69.63;100983.53;4994067;28;20539;-41
2022/09/08 06:50:22;;;;;;;5.47;4.97;;;;;;;21.69;67.96;100984.53;4993543;28;20520;-40
2022/09/08 06:52:52;;;;;;;5.77;5.43;;;;;;;21.17;67.36;100981.81;5001805;28;20469;-42
2022/09/08 06:55:38;;;;;;;6.50;5.80;;;;;;;20.94;68.54;100967.50;4993929;28;20448;-43
2022/09/08 06:58:21;;;;;;;9.20;5.57;;;;;;;21.05;69.72;100976.53;4993911;28;20464;-41
2022/09/08 07:00:58;;;;;;;6.20;5.57;;;;;;;20.89;69.45;100981.00;4993375;28;20472;-44
2022/09/08 07:03:50;;;;;;;6.00;5.50;;;;;;;20.88;67.41;100973.94;4993707;28;20897;-43
2022/09/08 07:06:22;;;;;;;6.30;5.43;;;;;;;20.97;67.72;100982.41;4993807;28;20938;-45
2022/09/08 07:09:10;;;;;;;8.73;6.00;;;;;;;20.89;67.59;100985.63;4993717;28;20433;-41
2022/09/08 07:11:59;;;;;;;7.30;5.77;;;;;;;20.60;67.00;100984.28;4993145;28;20830;-42
2022/09/08 07:14:51;;;;;;;7.83;6.37;;;;;;;20.50;66.28;100998.53;4993567;28;20583;-42
2022/09/08 07:17:23;;;;;;;9.13;5.83;;;;;;;20.30;68.14;100993.72;4993370;28;20426;-40
2022/09/08 07:19:52;;;;;;;6.80;6.20;;;;;;;19.97;69.07;101001.16;4993259;28;20488;-43
2022/09/08 07:22:31;;;;;;;6.80;5.70;;;;;;;20.04;70.22;100994.47;4993102;28;20536;-41
2022/09/08 07:25:16;;;;;;;7.70;6.27;;;;;;;19.80;68.68;100993.09;4993545;28;20441;-41
2022/09/08 07:27:47;;;;;;;8.10;6.37;;;;;;;19.68;71.11;100990.47;4993393;28;20418;-40
2022/09/08 07:30:16;;;;;;;6.53;5.53;;;;;;;19.71;71.44;100991.91;4993141;28;20484;-40
2022/09/08 07:32:48;;;;;;;6.50;5.70;;;;;;;19.69;71.77;100984.00;4993065;28;20460;-40
2022/09/08 07:35:48;;;;;;;6.00;5.50;;;;;;;19.48;72.14;100987.50;4993311;28;20473;-40
2022/09/08 07:38:26;;;;;;;7.00;6.40;;;;;;;19.23;72.27;100996.03;4992315;28;20488;-40
2022/09/08 07:40:57;;;;;;;6.23;5.70;;;;;;;18.87;73.12;100991.16;4992716;28;20465;-40
2022/09/08 07:43:25;;;;;;;5.97;5.40;;;;;;;18.70;73.68;100996.50;4992961;28;20890;-40
2022/09/08 07:46:04;;;;;;;6.00;5.50;;;;;;;18.71;74.09;101000.03;4993088;28;20437;-42
2022/09/08 07:48:38;;;;;;;6.27;5.87;;;;;;;18.87;74.64;100993.03;4992894;28;21029;-41
2022/09/08 07:51:11;;;;;;;5.20;4.80;;;;;;;18.87;74.95;100993.03;4992430;28;20997;-41
2022/09/08 07:53:50;;;;;;;4.90;4.47;;;;;;;18.70;74.47;100993.81;5000640;28;20935;-40
2022/09/08 07:56:22;;;;;;;6.57;5.30;;;;;;;18.50;74.60;100996.16;5008971;28;20432;-40
2022/09/08 07:59:05;;;;;;;7.87;5.67;;;;;;;18.52;74.85;100996.72;5012455;28;20487;-40
2022/09/08 08:01:45;;;;;;;6.80;6.20;;;;;;;18.47;74.63;100990.38;5012027;28;20472;-40
2022/09/08 08:04:37;;;;;;;7.27;5.97;;;;;;;18.27;75.63;101001.63;5012432;28;20807;-40
2022/09/08 08:07:08;;;;;;;6.30;5.70;;;;;;;18.22;74.79;100996.94;5012119;28;20818;-40
2022/09/08 08:09:46;;;;;;;6.97;6.33;;;;;;;18.21;74.31;100989.09;5011954;28;20498;-40
2022/09/08 08:12:23;;;;;;;6.90;6.40;;;;;;;18.11;73.98;100997.81;5011899;28;20507;-39
2022/09/08 08:15:00;;;;;;;6.93;6.10;;;;;;;18.08;73.79;100995.59;5012222;28;20428;-41
2022/09/08 08:17:40;;;;;;;7.33;6.50;;;;;;;18.04;73.97;100996.31;5012180;28;20798;-40
2022/09/08 08:20:21;;;;;;;10.23;6.30;;;;;;;17.95;73.21;101001.25;5011908;28;20542;-42
2022/09/08 08:23:10;;;;;;;6.97;6.47;;;;;;;17.86;74.55;100989.19;5011765;28;20472;-41
2022/09/08 08:25:47;;;;;;;6.40;5.80;;;;;;;17.91;75.79;100991.19;5012122;28;20499;-40
2022/09/08 08:28:17;;;;;;;6.30;5.90;;;;;;;17.93;76.49;100995.28;5012013;28;20494;-40
2022/09/08 08:30:54;;;;;;;7.47;5.80;;;;;;;17.94;78.25;100991.53;5011628;28;20469;-41
2022/09/08 08:33:27;;;;;;;7.43;6.03;;;;;;;18.01;78.84;100989.50;5012005;28;20425;-41
2022/09/08 08:36:01;;;;;;;6.23;5.77;;;;;;;17.89;79.30;100993.31;5012277;28;20491;-40
2022/09/08 08:38:41;;;;;;;8.20;6.13;;;;;;;17.93;79.59;100984.47;5011721;28;20475;-40
2022/09/08 08:41:19;;;;;;;7.07;5.77;;;;;;;17.82;79.69;100982.66;5011481;28;20460;-42
2022/09/08 08:44:15;;;;;;;6.53;5.93;;;;;;;17.74;80.66;100987.59;5011867;28;20468;-40
2022/09/08 08:47:05;;;;;;;7.53;6.77;;;;;;;17.88;80.54;100983.56;5011833;28;20499;-40
2022/09/08 08:50:00;;;;;;;7.10;6.50;;;;;;;17.82;78.67;100985.34;5012855;28;20460;-40
2022/09/08 08:52:52;;;;;;;8.23;5.87;;;;;;;17.67;79.49;100966.97;5007403;28;20454;-40
2022/09/08 08:55:35;;;;;;;9.27;6.00;;;;;;;17.78;79.58;100972.56;5007667;28;20499;-42
2022/09/08 08:58:25;;;;;;;6.50;6.00;;;;;;;17.78;78.99;100969.84;5016106;28;20429;-40
2022/09/08 09:01:27;;;;;;;6.63;5.93;;;;;;;17.93;78.66;100971.00;5015212;28;20468;-40
2022/09/08 09:04:14;;;;;;;8.60;6.30;;;;;;;18.14;78.22;100959.53;5013969;28;20476;-41
2022/09/08 09:07:02;;;;;;;11.33;6.60;;;;;;;18.07;76.28;100944.56;5015832;28;20440;-40
2022/09/08 09:09:48;;;;;;;7.80;6.57;;;;;;;17.99;76.65;100959.25;5015135;28;20484;-40
2022/09/08 09:12:47;;;;;;;6.67;5.93;;;;;;;18.02;76.41;100960.63;5015459;28;20866;-43
2022/09/08 09:16:02;;;;;;;6.30;5.77;;;;;;;17.99;76.09;100961.94;5015453;28;20432;-40
2022/09/08 09:19:06;;;;;;;6.60;5.97;;;;;;;17.93;77.50;100949.41;4975176;28;20439;-40
2022/09/08 09:21:51;;;;;;;9.27;6.10;;;;;;;18.06;77.39;100949.13;5014797;28;20477;-41
2022/09/08 09:24:37;;;;;;;7.03;6.40;;;;;;;18.00;75.92;100939.31;5015006;28;21007;-41
2022/09/08 09:27:15;;;;;;;7.47;6.67;;;;;;;18.04;75.96;100939.66;5015544;28;20507;-41
2022/09/08 09:29:43;;;;;;;7.80;6.13;;;;;;;18.19;75.80;100939.91;5014791;28;20498;-41
2022/09/08 09:32:41;;;;;;;10.57;6.90;;;;;;;18.21;75.11;100938.63;5014825;28;20456;-41
2022/09/08 09:35:45;;;;;;;8.20;6.53;;;;;;;18.20;74.81;100936.97;5015310;28;20992;-42
2022/09/08 09:38:37;;;;;;;7.30;6.67;;;;;;;18.30;74.71;100935.53;5015013;28;20428;-40
2022/09/08 09:41:26;;;;;;;9.70;6.10;;;;;;;18.35;74.86;100947.25;5014283;28;20885;-41
2022/09/08 09:44:09;;;;;;;6.17;5.53;;;;;;;18.40;74.62;100935.72;5014782;28;20476;-42
2022/09/08 09:47:05;;;;;;;6.67;5.50;;;;;;;18.36;73.96;100927.28;5014891;28;20437;-42
2022/09/08 09:49:59;;;;;;;8.20;6.17;;;;;;;18.39;74.75;100939.47;5014178;28;20432;-41
2022/09/08 09:52:37;;;;;;;12.60;7.03;;;;;;;18.40;74.54;100922.22;5005437;28;20468;-41
2022/09/08 09:55:23;;;;;;;20.20;7.23;;;;;;;18.44;74.30;100926.06;5003194;28;20499;-41
2022/09/08 09:58:28;;;;;;;6.33;5.60;;;;;;;18.23;74.70;100916.78;4994939;28;20488;-42
2022/09/08 10:01:30;;;;;;;12.43;6.50;;;;;;;18.26;75.25;100921.69;4992633;28;20472;-40
2022/09/08 10:04:18;;;;;;;6.50;5.50;;;;;;;18.20;75.80;100931.59;4994852;28;20600;-40
2022/09/08 10:07:21;;;;;;;6.73;6.13;;;;;;;18.28;75.72;100927.66;4995073;28;20433;-42
2022/09/08 10:10:25;;;;;;;7.30;6.53;;;;;;;18.18;74.56;100920.22;4994412;28;20457;-40
2022/09/08 10:13:26;;;;;;;6.80;6.30;;;;;;;18.12;74.97;100915.78;4994778;28;20437;-40
2022/09/08 10:16:35;;;;;;;12.70;6.87;;;;;;;18.05;76.00;100909.72;4992287;28;20446;-43
2022/09/08 10:19:33;;;;;;;7.67;6.30;;;;;;;17.92;76.09;100907.28;4994907;28;20433;-40
2022/09/08 10:22:33;;;;;;;6.27;5.90;;;;;;;17.81;76.30;100888.44;4994382;28;20446;-40
2022/09/08 10:25:31;;;;;;;6.47;5.87;;;;;;;17.81;77.30;100891.97;4994460;28;21750;-40
2022/09/08 10:28:41;;;;;;;6.07;5.47;;;;;;;17.67;77.82;100901.41;4994580;28;20438;-42
2022/09/08 10:32:04;;;;;;;6.73;6.20;;;;;;;17.63;76.65;100913.72;4993821;28;20477;-42
2022/09/08 10:35:07;;;;;;;8.47;6.90;;;;;;;17.67;77.20;100925.69;4994400;28;20993;-40
2022/09/08 10:38:08;;;;;;;7.73;6.20;;;;;;;17.66;78.33;100924.03;4994464;28;20437;-43
2022/09/08 10:40:42;;;;;;;5.90;5.50;;;;;;;17.64;78.37;100937.78;4993874;28;20471;-41
2022/09/08 10:43:40;;;;;;;6.37;5.77;;;;;;;17.64;79.64;100923.47;4994222;28;20430;-41
2022/09/08 10:46:38;;;;;;;11.73;5.70;;;;;;;17.45;83.10;100911.16;4994201;28;20961;-40
2022/09/08 10:49:36;;;;;;;7.87;6.10;;;;;;;17.39;84.57;100904.84;4994276;28;20437;-40
2022/09/08 10:52:27;;;;;;;6.27;5.70;;;;;;;17.35;85.89;100911.75;5013322;28;20452;-40
2022/09/08 10:55:32;;;;;;;7.47;5.27;;;;;;;17.20;87.31;100908.75;5006902;28;20421;-39
2022/09/08 10:58:27;;;;;;;8.37;5.30;;;;;;;16.89;89.94;100922.56;4982780;28;20436;-40
2022/09/08 11:01:08;;;;;;;5.83;5.23;;;;;;;16.61;93.12;100939.38;5012924;28;20902;-40
2022/09/08 11:03:57;;;;;;;11.07;5.70;;;;;;;16.33;97.93;100933.78;5013334;28;20433;-39
2022/09/08 11:06:37;;;;;;;15.47;8.77;;;;;;;16.11;100.00;100930.78;5013365;28;20780;-40
2022/09/08 11:09:27;;;;;;;9.93;8.77;;;;;;;15.74;100.00;100938.06;5013194;28;20938;-40
2022/09/08 11:12:36;;;;;;;11.27;10.20;;;;;;;15.51;100.00;100943.31;5012810;28;20570;-40
2022/09/08 11:15:40;;;;;;;10.73;9.80;;;;;;;15.24;100.00;100949.97;5011783;28;20496;-41
2022/09/08 11:18:32;;;;;;;11.83;9.80;;;;;;;15.04;100.00;100943.97;5013292;28;20435;-40
2022/09/08 11:21:03;;;;;;;10.63;9.80;;;;;;;14.98;100.00;100950.22;5011558;28;20882;-40
2022/09/08 11:23:43;;;;;;;14.10;10.80;;;;;;;14.79;100.00;100938.59;5012882;28;20440;-40
2022/09/08 11:26:27;;;;;;;13.90;12.50;;;;;;;14.69;100.00;100936.44;5013194;28;20531;-40
2022/09/08 11:29:02;;;;;;;11.97;11.07;;;;;;;14.66;100.00;100938.72;5012994;28;20435;-41
2022/09/08 11:31:44;;;;;;;13.10;11.30;;;;;;;14.61;100.00;100939.38;5012287;28;20476;-40
2022/09/08 11:34:33;;;;;;;18.33;16.60;;;;;;;14.55;100.00;100929.50;5012881;28;20433;-42
2022/09/08 11:37:35;;;;;;;18.60;17.10;;;;;;;14.54;100.00;100921.69;5012946;28;20493;-40
2022/09/08 11:40:25;;;;;;;24.73;22.63;;;;;;;14.43;100.00;100912.47;5005338;28;20456;-40
2022/09/08 11:43:30;;;;;;;21.93;20.43;;;;;;;14.38;100.00;100906.94;5012562;28;20433;-40
2022/09/08 11:46:14;;;;;;;28.97;26.63;;;;;;;14.32;100.00;100910.44;5012587;28;20477;-40
2022/09/08 11:49:12;;;;;;;26.93;25.23;;;;;;;14.30;100.00;100924.09;5012861;28;20799;-40
2022/09/08 11:52:22;;;;;;;30.43;28.13;;;;;;;14.21;100.00;100933.44;5012484;28;20488;-41
2022/09/08 11:55:21;;;;;;;33.00;30.80;;;;;;;14.14;100.00;100921.91;5012443;28;20444;-41
2022/09/08 11:58:09;;;;;;;34.37;30.90;;;;;;;14.01;100.00;100916.63;5013135;28;20491;-40
2022/09/08 12:01:02;;;;;;;36.00;33.37;;;;;;;13.98;100.00;100906.31;5002364;28;20465;-41
2022/09/08 12:03:58;;;;;;;37.57;34.33;;;;;;;13.88;100.00;100914.03;4994108;28;20492;-43
2022/09/08 12:07:00;;;;;;;38.57;34.77;;;;;;;13.88;100.00;100918.56;4993816;28;21029;-42
2022/09/08 12:10:00;;;;;;;35.70;32.77;;;;;;;13.84;100.00;100915.47;4992996;28;20931;-42